createdAt,value
2018-02-18T00:00:05.286Z,16.53
2018-02-18T00:02:34.246Z,18.00
2018-02-18T00:05:02.459Z,17.83
2018-02-18T00:07:31.388Z,18.07
2018-02-18T00:10:00.713Z,18.40
2018-02-18T00:12:28.851Z,18.40
2018-02-18T00:14:59.885Z,18.47
2018-02-18T00:17:28.113Z,18.53
2018-02-18T00:19:56.358Z,19.10
2018-02-18T00:22:24.503Z,17.87
2018-02-18T00:24:52.685Z,19.50
2018-02-18T00:27:20.821Z,18.13
2018-02-18T00:29:48.959Z,18.30
2018-02-18T00:32:17.085Z,18.90
2018-02-18T00:34:45.987Z,19.87
2018-02-18T00:37:14.159Z,19.33
2018-02-18T00:39:43.169Z,20.07
2018-02-18T00:42:11.324Z,20.43
2018-02-18T00:44:40.225Z,21.33
2018-02-18T00:47:09.112Z,19.87
2018-02-18T00:49:38.009Z,20.00
2018-02-18T00:52:06.894Z,20.57
2018-02-18T00:54:35.813Z,20.63
2018-02-18T00:57:03.977Z,20.70
2018-02-18T00:59:32.095Z,20.33
2018-02-18T01:02:00.316Z,20.23
2018-02-18T01:04:29.196Z,18.53
2018-02-18T01:06:58.088Z,19.50
2018-02-18T01:09:27.015Z,21.43
2018-02-18T01:11:55.160Z,21.33
2018-02-18T01:14:24.058Z,21.07
2018-02-18T01:16:52.192Z,19.73
2018-02-18T01:19:20.328Z,20.50
2018-02-18T01:21:48.517Z,23.50
2018-02-18T01:24:16.741Z,20.63
2018-02-18T01:26:44.981Z,20.47
2018-02-18T01:29:13.169Z,19.30
2018-02-18T01:31:41.462Z,21.67
2018-02-18T01:34:11.543Z,21.87
2018-02-18T01:36:39.724Z,21.00
2018-02-18T01:39:07.845Z,20.63
2018-02-18T01:41:35.980Z,20.73
2018-02-18T01:44:04.765Z,22.93
2018-02-18T01:46:32.923Z,21.77
2018-02-18T01:49:01.074Z,22.70
2018-02-18T01:51:29.271Z,20.87
2018-02-18T01:53:57.447Z,20.97
2018-02-18T01:56:25.623Z,20.63
2018-02-18T01:58:54.613Z,21.57
2018-02-18T02:01:23.607Z,22.17
2018-02-18T02:03:51.773Z,23.17
2018-02-18T02:06:19.891Z,22.17
2018-02-18T02:08:48.141Z,23.40
2018-02-18T02:11:16.304Z,21.90
2018-02-18T02:13:44.541Z,21.83
2018-02-18T02:16:12.699Z,20.97
2018-02-18T02:18:41.605Z,22.90
2018-02-18T02:21:09.754Z,21.27
2018-02-18T02:23:37.862Z,21.50
2018-02-18T02:26:05.996Z,21.80
2018-02-18T02:28:34.123Z,22.40
2018-02-18T02:31:03.432Z,21.07
2018-02-18T02:33:31.598Z,20.37
2018-02-18T02:35:59.730Z,22.33
2018-02-18T02:38:27.853Z,21.93
2018-02-18T02:40:55.995Z,21.53
2018-02-18T02:43:24.149Z,20.67
2018-02-18T02:45:53.096Z,21.10
2018-02-18T02:48:21.230Z,22.57
2018-02-18T02:50:50.103Z,21.63
2018-02-18T02:53:18.255Z,21.43
2018-02-18T02:55:46.432Z,23.93
2018-02-18T02:58:14.546Z,23.20
2018-02-18T03:00:43.507Z,22.57
2018-02-18T03:03:11.619Z,22.23
2018-02-18T03:05:39.815Z,22.07
2018-02-18T03:08:07.939Z,21.10
2018-02-18T03:10:36.061Z,21.53
2018-02-18T03:13:04.237Z,21.83
2018-02-18T03:15:33.208Z,23.20
2018-02-18T03:18:01.355Z,21.93
2018-02-18T03:20:30.251Z,21.60
2018-02-18T03:22:59.157Z,22.30
2018-02-18T03:25:27.315Z,22.33
2018-02-18T03:27:55.481Z,22.37
2018-02-18T03:30:23.674Z,23.17
2018-02-18T03:32:52.552Z,22.33
2018-02-18T03:35:20.715Z,23.43
2018-02-18T03:37:48.841Z,20.60
2018-02-18T03:40:17.030Z,22.80
2018-02-18T03:42:45.165Z,22.57
2018-02-18T03:45:14.092Z,21.77
2018-02-18T03:47:42.201Z,22.27
2018-02-18T03:50:10.344Z,23.03
2018-02-18T03:52:39.231Z,22.53
2018-02-18T03:55:07.390Z,23.70
2018-02-18T03:57:35.517Z,24.27
2018-02-18T04:00:03.642Z,22.13
2018-02-18T04:02:31.792Z,21.30
2018-02-18T04:04:59.931Z,21.37
2018-02-18T04:07:28.058Z,21.80
2018-02-18T04:09:56.182Z,22.43
2018-02-18T04:12:24.360Z,21.73
2018-02-18T04:14:52.492Z,21.30
2018-02-18T04:17:20.682Z,21.07
2018-02-18T04:19:48.852Z,21.57
2018-02-18T04:22:17.032Z,22.63
2018-02-18T04:24:45.151Z,23.03
2018-02-18T04:27:14.044Z,22.40
2018-02-18T04:29:42.985Z,23.70
2018-02-18T04:32:11.343Z,22.53
2018-02-18T04:34:39.474Z,22.13
2018-02-18T04:37:07.613Z,20.37
2018-02-18T04:39:35.733Z,22.90
2018-02-18T04:42:04.627Z,22.73
2018-02-18T04:44:33.594Z,22.63
2018-02-18T04:47:01.741Z,23.07
2018-02-18T04:49:29.895Z,22.33
2018-02-18T04:51:58.037Z,23.80
2018-02-18T04:54:27.430Z,23.83
2018-02-18T04:56:56.317Z,22.73
2018-02-18T04:59:24.457Z,23.33
2018-02-18T05:01:52.587Z,23.03
2018-02-18T05:04:21.497Z,23.30
2018-02-18T05:06:49.680Z,24.10
2018-02-18T05:09:17.828Z,21.70
2018-02-18T05:11:46.128Z,21.70
2018-02-18T05:14:14.357Z,23.73
2018-02-18T05:16:42.640Z,23.60
2018-02-18T05:19:11.157Z,23.27
2018-02-18T05:21:39.302Z,23.57
2018-02-18T05:24:08.192Z,25.77
2018-02-18T05:26:37.750Z,23.83
2018-02-18T05:29:05.878Z,24.33
2018-02-18T05:31:34.848Z,24.90
2018-02-18T05:34:03.011Z,24.20
2018-02-18T05:36:31.126Z,24.80
2018-02-18T05:39:00.027Z,24.90
2018-02-18T05:41:28.146Z,25.27
2018-02-18T05:43:56.270Z,24.50
2018-02-18T05:46:24.419Z,24.23
2018-02-18T05:48:53.336Z,24.10
2018-02-18T05:51:21.488Z,24.53
2018-02-18T05:53:50.379Z,23.03
2018-02-18T05:56:19.454Z,24.67
2018-02-18T05:58:47.689Z,23.17
2018-02-18T06:01:15.928Z,24.87
2018-02-18T06:03:44.840Z,23.47
2018-02-18T06:06:13.025Z,24.37
2018-02-18T06:08:41.153Z,24.37
2018-02-18T06:11:09.275Z,23.83
2018-02-18T06:13:37.419Z,23.27
2018-02-18T06:16:06.329Z,23.97
2018-02-18T06:18:34.623Z,23.07
2018-02-18T06:21:02.749Z,25.53
2018-02-18T06:23:31.568Z,25.20
2018-02-18T06:25:59.708Z,25.17
2018-02-18T06:28:27.829Z,24.63
2018-02-18T06:30:55.960Z,24.67
2018-02-18T06:33:24.072Z,24.10
2018-02-18T06:35:52.222Z,24.50
2018-02-18T06:38:21.102Z,25.17
2018-02-18T06:40:50.016Z,23.87
2018-02-18T06:43:18.136Z,26.03
2018-02-18T06:45:46.567Z,24.23
2018-02-18T06:48:14.744Z,25.50
2018-02-18T06:50:43.374Z,24.20
2018-02-18T06:53:15.382Z,25.73
2018-02-18T06:55:44.268Z,23.87
2018-02-18T06:58:14.446Z,25.40
2018-02-18T07:00:42.596Z,26.50
2018-02-18T07:03:10.891Z,25.50
2018-02-18T07:05:39.184Z,23.70
2018-02-18T07:08:07.364Z,24.67
2018-02-18T07:10:35.704Z,23.17
2018-02-18T07:13:04.604Z,25.00
2018-02-18T07:15:32.847Z,23.13
2018-02-18T07:18:01.741Z,24.40
2018-02-18T07:20:29.894Z,24.23
2018-02-18T07:22:58.031Z,22.03
2018-02-18T07:25:26.275Z,24.93
2018-02-18T07:27:54.507Z,25.07
2018-02-18T07:30:22.651Z,23.50
2018-02-18T07:32:50.914Z,23.40
2018-02-18T07:35:19.073Z,22.97
2018-02-18T07:37:47.235Z,24.23
2018-02-18T07:40:16.129Z,22.63
2018-02-18T07:42:44.275Z,22.10
2018-02-18T07:45:12.442Z,23.37
2018-02-18T07:47:40.599Z,22.37
2018-02-18T07:50:08.718Z,22.20
2018-02-18T07:52:37.915Z,23.13
2018-02-18T07:55:06.917Z,23.30
2018-02-18T07:57:35.825Z,22.23
2018-02-18T08:00:04.236Z,22.37
2018-02-18T08:02:32.850Z,20.97
2018-02-18T08:05:00.982Z,21.53
2018-02-18T08:07:29.274Z,21.43
2018-02-18T08:10:01.407Z,20.53
2018-02-18T08:12:29.618Z,20.27
2018-02-18T08:14:57.824Z,20.57
2018-02-18T08:17:26.937Z,19.73
2018-02-18T08:19:56.527Z,19.73
2018-02-18T08:22:25.430Z,18.70
2018-02-18T08:24:54.372Z,20.63
2018-02-18T08:27:22.562Z,20.63
2018-02-18T08:29:50.678Z,20.60
2018-02-18T08:32:19.597Z,20.43
2018-02-18T08:34:47.737Z,21.80
2018-02-18T08:37:16.627Z,20.43
2018-02-18T08:39:45.530Z,22.10
2018-02-18T08:42:14.449Z,21.80
2018-02-18T08:44:42.585Z,21.80
2018-02-18T08:47:11.478Z,21.50
2018-02-18T08:49:40.426Z,21.73
2018-02-18T08:52:08.533Z,22.73
2018-02-18T08:54:37.442Z,23.27
2018-02-18T08:57:06.532Z,23.97
2018-02-18T08:59:35.426Z,24.73
2018-02-18T09:02:05.226Z,25.27
2018-02-18T09:04:34.255Z,22.67
2018-02-18T09:07:02.505Z,22.83
2018-02-18T09:09:31.472Z,23.30
2018-02-18T09:11:59.613Z,22.10
2018-02-18T09:14:27.735Z,23.00
2018-02-18T09:16:56.624Z,23.13
2018-02-18T09:19:26.006Z,24.20
2018-02-18T09:21:54.165Z,23.87
2018-02-18T09:24:22.459Z,24.30
2018-02-18T09:26:50.664Z,25.47
2018-02-18T09:29:19.541Z,23.13
2018-02-18T09:31:47.688Z,23.33
2018-02-18T09:34:15.801Z,24.43
2018-02-18T09:36:44.691Z,24.67
2018-02-18T09:39:13.587Z,24.40
2018-02-18T09:41:42.483Z,25.20
2018-02-18T09:44:11.401Z,24.30
2018-02-18T09:46:39.531Z,27.33
2018-02-18T09:49:08.572Z,25.43
2018-02-18T09:51:36.719Z,25.13
2018-02-18T09:54:05.630Z,27.83
2018-02-18T09:56:34.549Z,26.67
2018-02-18T09:59:02.839Z,27.70
2018-02-18T10:01:31.077Z,25.73
2018-02-18T10:03:59.267Z,27.67
2018-02-18T10:06:31.448Z,26.47
2018-02-18T10:08:59.693Z,28.63
2018-02-18T10:11:27.925Z,27.43
2018-02-18T10:13:56.822Z,28.00
2018-02-18T10:16:25.751Z,28.73
2018-02-18T10:18:53.888Z,28.53
2018-02-18T10:21:22.878Z,26.80
2018-02-18T10:23:51.784Z,28.83
2018-02-18T10:26:20.663Z,29.07
2018-02-18T10:28:49.608Z,28.87
2018-02-18T10:31:17.774Z,29.57
2018-02-18T10:33:45.943Z,30.50
2018-02-18T10:36:15.302Z,28.40
2018-02-18T10:38:43.498Z,27.97
2018-02-18T10:41:11.764Z,26.73
2018-02-18T10:43:40.696Z,27.93
2018-02-18T10:46:08.860Z,27.10
2018-02-18T10:48:37.008Z,27.87
2018-02-18T10:51:05.922Z,27.83
2018-02-18T10:53:35.087Z,26.60
2018-02-18T10:56:03.300Z,26.40
2018-02-18T10:58:31.530Z,26.03
2018-02-18T11:01:00.423Z,27.60
2018-02-18T11:03:29.369Z,26.43
2018-02-18T11:05:57.644Z,25.17
2018-02-18T11:08:25.772Z,24.77
2018-02-18T11:10:54.669Z,25.73
2018-02-18T11:13:27.085Z,23.07
2018-02-18T11:15:55.200Z,23.47
2018-02-18T11:18:23.342Z,22.43
2018-02-18T11:20:51.457Z,22.27
2018-02-18T11:23:21.007Z,21.90
2018-02-18T11:25:51.690Z,21.83
2018-02-18T11:28:19.835Z,18.10
2018-02-18T11:30:47.979Z,17.03
2018-02-18T11:33:16.900Z,17.40
2018-02-18T11:35:45.172Z,16.33
2018-02-18T11:38:13.295Z,17.40
2018-02-18T11:40:41.456Z,14.17
2018-02-18T11:43:09.603Z,14.97
2018-02-18T11:45:37.743Z,16.87
2018-02-18T11:48:06.676Z,15.87
2018-02-18T11:50:34.797Z,18.57
2018-02-18T11:53:03.749Z,17.07
2018-02-18T11:55:31.870Z,17.97
2018-02-18T11:58:00.795Z,17.57
2018-02-18T12:00:28.932Z,17.13
2018-02-18T12:02:57.826Z,15.50
2018-02-18T12:05:26.272Z,17.23
2018-02-18T12:07:54.438Z,16.60
2018-02-18T12:10:22.637Z,17.77
2018-02-18T12:12:51.446Z,18.60
2018-02-18T12:15:20.550Z,18.20
2018-02-18T12:17:49.470Z,17.27
2018-02-18T12:20:17.578Z,17.77
2018-02-18T12:22:45.896Z,14.10
2018-02-18T12:25:14.020Z,17.43
2018-02-18T12:27:42.268Z,17.20
2018-02-18T12:30:10.443Z,17.23
2018-02-18T12:32:38.632Z,16.60
2018-02-18T12:35:07.025Z,17.97
2018-02-18T12:37:35.194Z,19.43
2018-02-18T12:40:03.443Z,17.40
2018-02-18T12:42:31.722Z,17.53
2018-02-18T12:44:59.860Z,18.87
2018-02-18T12:47:28.934Z,17.07
2018-02-18T12:49:57.294Z,17.90
2018-02-18T12:52:25.460Z,19.00
2018-02-18T12:54:53.739Z,19.60
2018-02-18T12:57:21.921Z,18.47
2018-02-18T12:59:50.885Z,20.67
2018-02-18T13:02:19.080Z,20.57
2018-02-18T13:04:47.279Z,20.23
2018-02-18T13:07:16.193Z,20.33
2018-02-18T13:09:45.187Z,19.87
2018-02-18T13:12:14.272Z,19.73
2018-02-18T13:14:42.411Z,18.00
2018-02-18T13:17:10.583Z,14.80
2018-02-18T13:19:38.905Z,14.17
2018-02-18T13:22:07.849Z,14.60
2018-02-18T13:24:36.134Z,15.33
2018-02-18T13:27:04.373Z,14.67
2018-02-18T13:29:32.488Z,13.97
2018-02-18T13:32:00.718Z,15.00
2018-02-18T13:34:28.843Z,15.53
2018-02-18T13:36:56.999Z,18.70
2018-02-18T13:39:25.374Z,20.80
2018-02-18T13:41:53.561Z,20.13
2018-02-18T13:44:21.773Z,21.37
2018-02-18T13:46:50.834Z,21.60
2018-02-18T13:49:24.811Z,20.23
2018-02-18T13:51:53.050Z,20.03
2018-02-18T13:54:21.994Z,17.07
2018-02-18T13:56:50.840Z,17.10
2018-02-18T13:59:19.748Z,15.60
2018-02-18T14:01:48.644Z,15.53
2018-02-18T14:04:17.394Z,15.47
2018-02-18T14:06:45.549Z,13.63
2018-02-18T14:09:13.682Z,14.03
2018-02-18T14:11:41.854Z,13.23
2018-02-18T14:14:10.015Z,12.37
2018-02-18T14:16:38.945Z,11.70
2018-02-18T14:19:07.071Z,12.50
2018-02-18T14:21:35.997Z,10.50
2018-02-18T14:24:04.907Z,10.13
2018-02-18T14:26:33.073Z,12.30
2018-02-18T14:29:11.747Z,12.13
2018-02-18T14:31:40.699Z,11.13
2018-02-18T14:34:08.861Z,11.13
2018-02-18T14:36:37.003Z,11.37
2018-02-18T14:39:05.885Z,12.50
2018-02-18T14:41:52.517Z,11.93
2018-02-18T14:44:38.551Z,12.00
2018-02-18T14:47:24.699Z,11.17
2018-02-18T14:50:10.815Z,11.80
2018-02-18T14:52:56.786Z,11.67
2018-02-18T14:55:42.694Z,12.40
2018-02-18T14:58:10.835Z,11.57
2018-02-18T15:00:39.728Z,11.73
2018-02-18T15:03:08.620Z,12.63
2018-02-18T15:05:37.519Z,12.30
2018-02-18T15:08:06.400Z,11.87
2018-02-18T15:10:35.328Z,13.37
2018-02-18T15:13:04.443Z,12.70
2018-02-18T15:15:32.875Z,13.57
2018-02-18T15:18:02.534Z,13.37
2018-02-18T15:20:31.478Z,12.40
2018-02-18T15:23:00.398Z,12.37
2018-02-18T15:25:28.518Z,13.83
2018-02-18T15:27:56.662Z,13.47
2018-02-18T15:30:26.148Z,12.00
2018-02-18T15:32:54.288Z,12.30
2018-02-18T15:35:23.188Z,12.90
2018-02-18T15:37:52.395Z,13.17
2018-02-18T15:40:21.358Z,12.30
2018-02-18T15:42:50.058Z,12.13
2018-02-18T15:45:18.237Z,13.07
2018-02-18T15:47:46.362Z,9.67
2018-02-18T15:50:14.527Z,11.57
2018-02-18T15:52:42.765Z,10.93
2018-02-18T15:55:10.938Z,12.70
2018-02-18T15:57:39.902Z,12.10
2018-02-18T16:00:08.105Z,13.60
2018-02-18T16:02:36.558Z,14.20
2018-02-18T16:05:04.889Z,13.33
2018-02-18T16:07:33.106Z,14.07
2018-02-18T16:10:01.310Z,13.27
2018-02-18T16:12:30.296Z,12.33
2018-02-18T16:14:59.373Z,13.00
2018-02-18T16:17:27.755Z,14.37
2018-02-18T16:19:55.884Z,12.90
2018-02-18T16:22:24.048Z,14.00
2018-02-18T16:25:03.060Z,14.27
2018-02-18T16:27:31.194Z,14.30
2018-02-18T16:29:59.307Z,14.43
2018-02-18T16:32:28.198Z,13.77
2018-02-18T16:34:57.089Z,13.90
2018-02-18T16:37:25.968Z,14.80
2018-02-18T16:39:54.866Z,15.80
2018-02-18T16:42:23.818Z,15.00
2018-02-18T16:44:51.961Z,14.67
2018-02-18T16:47:20.087Z,14.20
2018-02-18T16:49:48.224Z,14.60
2018-02-18T16:52:16.342Z,16.03
2018-02-18T16:54:45.237Z,16.87
2018-02-18T16:57:14.215Z,16.37
2018-02-18T16:59:42.983Z,16.50
2018-02-18T17:02:11.135Z,16.77
2018-02-18T17:04:39.305Z,16.00
2018-02-18T17:07:07.519Z,17.77
2018-02-18T17:09:35.665Z,16.57
2018-02-18T17:12:03.923Z,18.40
2018-02-18T17:14:32.050Z,16.93
2018-02-18T17:17:00.231Z,16.73
2018-02-18T17:19:28.846Z,16.37
2018-02-18T17:21:56.971Z,16.57
2018-02-18T17:24:25.221Z,15.83
2018-02-18T17:26:53.347Z,15.80
2018-02-18T17:29:22.249Z,16.57
2018-02-18T17:31:51.194Z,17.57
2018-02-18T17:34:19.350Z,17.47
2018-02-18T17:36:47.506Z,19.33
2018-02-18T17:39:15.734Z,18.13
2018-02-18T17:41:44.045Z,18.50
2018-02-18T17:44:13.000Z,18.47
2018-02-18T17:46:41.199Z,19.53
2018-02-18T17:49:10.088Z,19.07
2018-02-18T17:51:39.037Z,19.80
2018-02-18T17:54:07.188Z,20.43
2018-02-18T17:56:35.371Z,20.83
2018-02-18T17:59:03.627Z,19.80
2018-02-18T18:01:31.842Z,22.00
2018-02-18T18:04:00.119Z,21.87
2018-02-18T18:06:28.395Z,22.80
2018-02-18T18:08:56.607Z,21.53
2018-02-18T18:11:24.779Z,22.50
2018-02-18T18:13:53.027Z,20.90
2018-02-18T18:16:21.168Z,21.40
2018-02-18T18:18:49.299Z,22.23
2018-02-18T18:21:17.423Z,23.27
2018-02-18T18:23:45.749Z,23.23
2018-02-18T18:26:14.598Z,22.03
2018-02-18T18:28:43.608Z,22.47
2018-02-18T18:31:11.889Z,20.87
2018-02-18T18:33:40.542Z,20.10
2018-02-18T18:36:10.061Z,20.80
2018-02-18T18:38:38.711Z,19.77
2018-02-18T18:41:07.846Z,20.33
2018-02-18T18:43:36.053Z,20.67
2018-02-18T18:46:04.200Z,20.73
2018-02-18T18:48:32.336Z,21.43
2018-02-18T18:51:00.599Z,21.17
2018-02-18T18:53:29.665Z,20.00
2018-02-18T18:55:58.008Z,21.13
2018-02-18T18:58:26.170Z,20.03
2018-02-18T19:00:54.708Z,18.77
2018-02-18T19:03:22.819Z,17.93
2018-02-18T19:05:51.416Z,17.67
2018-02-18T19:08:20.676Z,19.50
2018-02-18T19:10:48.944Z,21.27
2018-02-18T19:13:17.130Z,19.47
2018-02-18T19:15:45.265Z,20.77
2018-02-18T19:18:14.197Z,20.73
2018-02-18T19:20:42.338Z,19.17
2018-02-18T19:23:10.812Z,21.17
2018-02-18T19:25:39.007Z,17.33
2018-02-18T19:28:07.171Z,17.63
2018-02-18T19:30:35.299Z,16.43
2018-02-18T19:33:03.437Z,16.87
2018-02-18T19:35:31.824Z,16.17
2018-02-18T19:38:00.064Z,17.20
2018-02-18T19:40:29.056Z,18.47
2018-02-18T19:42:58.112Z,17.70
2018-02-18T19:45:26.412Z,18.87
2018-02-18T19:47:55.499Z,18.87
2018-02-18T19:50:23.643Z,19.27
2018-02-18T19:52:53.212Z,19.60
2018-02-18T19:55:21.617Z,19.93
2018-02-18T19:57:49.749Z,20.30
2018-02-18T20:00:17.889Z,19.93
2018-02-18T20:02:46.823Z,20.83
2018-02-18T20:05:15.782Z,18.67
2018-02-18T20:07:43.984Z,19.43
2018-02-18T20:10:12.148Z,20.40
2018-02-18T20:12:40.286Z,21.77
2018-02-18T20:15:09.202Z,20.37
2018-02-18T20:17:37.319Z,20.33
2018-02-18T20:20:05.528Z,19.37
2018-02-18T20:22:34.450Z,21.30
2018-02-18T20:25:02.662Z,21.10
2018-02-18T20:27:30.808Z,21.73
2018-02-18T20:29:58.956Z,20.50
2018-02-18T20:32:27.118Z,20.67
2018-02-18T20:34:56.980Z,20.07
2018-02-18T20:37:25.944Z,20.03
2018-02-18T20:39:54.226Z,20.70
2018-02-18T20:42:22.363Z,19.93
2018-02-18T20:44:50.500Z,20.60
2018-02-18T20:47:18.639Z,20.03
2018-02-18T20:49:46.798Z,18.70
2018-02-18T20:52:16.095Z,18.00
2018-02-18T20:54:45.066Z,18.17
2018-02-18T20:57:13.206Z,20.20
2018-02-18T20:59:41.375Z,18.97
2018-02-18T21:02:09.524Z,18.83
2018-02-18T21:04:38.479Z,19.23
2018-02-18T21:07:06.647Z,19.33
2018-02-18T21:09:34.794Z,19.10
2018-02-18T21:12:02.940Z,19.13
2018-02-18T21:14:31.895Z,19.13
2018-02-18T21:17:00.093Z,18.13
2018-02-18T21:19:29.002Z,20.53
2018-02-18T21:21:57.927Z,20.67
2018-02-18T21:24:26.123Z,19.87
2018-02-18T21:26:54.373Z,19.07
2018-02-18T21:29:22.519Z,17.40
2018-02-18T21:31:50.724Z,17.97
2018-02-18T21:34:19.661Z,17.77
2018-02-18T21:36:48.586Z,18.20
2018-02-18T21:39:16.747Z,17.70
2018-02-18T21:41:46.116Z,19.60
2018-02-18T21:44:14.368Z,18.03
2018-02-18T21:46:43.254Z,19.37
2018-02-18T21:49:11.389Z,21.43
2018-02-18T21:51:40.301Z,19.23
2018-02-18T21:54:08.460Z,20.77
2018-02-18T21:56:36.626Z,20.03
2018-02-18T21:59:05.550Z,19.70
2018-02-18T22:01:33.692Z,20.80
2018-02-18T22:04:02.632Z,20.00
2018-02-18T22:06:30.813Z,21.73
2018-02-18T22:08:58.978Z,21.63
2018-02-18T22:11:27.133Z,21.63
2018-02-18T22:13:55.276Z,21.47
2018-02-18T22:16:24.209Z,20.70
2018-02-18T22:18:52.342Z,20.70
2018-02-18T22:21:21.332Z,21.20
2018-02-18T22:23:50.294Z,21.43
2018-02-18T22:26:18.474Z,21.17
2018-02-18T22:28:46.669Z,20.60
2018-02-18T22:31:15.624Z,20.97
2018-02-18T22:33:43.732Z,19.93
2018-02-18T22:36:11.987Z,22.63
2018-02-18T22:38:40.548Z,23.03
2018-02-18T22:41:08.687Z,23.40
2018-02-18T22:43:36.817Z,23.60
2018-02-18T22:46:04.977Z,22.80
2018-02-18T22:48:33.118Z,22.17
2018-02-18T22:51:01.266Z,23.17
2018-02-18T22:53:30.175Z,22.30
2018-02-18T22:55:58.305Z,21.00
2018-02-18T22:58:26.445Z,21.63
2018-02-18T23:00:54.588Z,20.63
2018-02-18T23:03:23.605Z,19.43
2018-02-18T23:05:52.598Z,17.70
2018-02-18T23:08:20.851Z,17.43
2018-02-18T23:10:49.743Z,14.53
2018-02-18T23:13:18.630Z,13.47
2018-02-18T23:15:47.584Z,15.53
2018-02-18T23:18:15.773Z,16.90
2018-02-18T23:21:01.696Z,16.90
2018-02-18T23:23:30.596Z,14.70
2018-02-18T23:25:58.757Z,15.77
2018-02-18T23:28:30.392Z,15.83
2018-02-18T23:30:59.074Z,16.20
2018-02-18T23:33:28.005Z,16.73
2018-02-18T23:35:56.118Z,15.10
2018-02-18T23:38:24.266Z,16.80
2018-02-18T23:40:52.472Z,12.30
2018-02-18T23:43:20.643Z,13.63
2018-02-18T23:45:48.760Z,10.43
2018-02-18T23:48:17.674Z,12.67
2018-02-18T23:50:45.843Z,14.63
2018-02-18T23:53:13.972Z,18.00
2018-02-18T23:55:42.130Z,17.90
2018-02-18T23:58:10.242Z,17.23
